createdAt,value
2022-07-28T00:00:24.240Z,22.95
2022-07-28T00:02:56.368Z,22.95
2022-07-28T00:05:30.600Z,22.93
2022-07-28T00:08:03.228Z,22.94
2022-07-28T00:10:35.802Z,22.90
2022-07-28T00:13:07.883Z,22.91
2022-07-28T00:15:39.857Z,22.90
2022-07-28T00:18:11.789Z,22.90
2022-07-28T00:20:44.019Z,22.91
2022-07-28T00:23:16.349Z,22.91
2022-07-28T00:25:48.704Z,22.92
2022-07-28T00:28:20.667Z,22.93
2022-07-28T00:30:54.217Z,22.92
2022-07-28T00:33:27.113Z,22.93
2022-07-28T00:35:59.140Z,22.91
2022-07-28T00:38:32.016Z,22.87
2022-07-28T00:41:13.403Z,22.84
2022-07-28T00:43:48.511Z,22.83
2022-07-28T00:46:23.078Z,22.83
2022-07-28T00:48:56.540Z,22.82
2022-07-28T00:51:29.641Z,22.81
2022-07-28T00:54:01.976Z,22.82
2022-07-28T00:56:35.924Z,22.82
2022-07-28T00:59:08.377Z,22.80
2022-07-28T01:01:40.488Z,22.78
2022-07-28T01:04:13.096Z,22.75
2022-07-28T01:06:54.082Z,22.75
2022-07-28T01:09:53.189Z,22.74
2022-07-28T01:12:49.304Z,22.72
2022-07-28T01:15:33.394Z,22.69
2022-07-28T01:18:08.548Z,22.71
2022-07-28T01:20:55.673Z,22.76
2022-07-28T01:23:30.739Z,22.76
2022-07-28T01:26:26.733Z,22.78
2022-07-28T01:29:10.711Z,22.79
2022-07-28T01:31:45.777Z,22.79
2022-07-28T01:34:23.749Z,22.81
2022-07-28T01:36:58.834Z,22.83
2022-07-28T01:39:33.909Z,22.82
2022-07-28T01:42:08.464Z,22.86
2022-07-28T01:44:43.571Z,22.90
2022-07-28T01:47:17.982Z,22.94
2022-07-28T01:49:51.002Z,22.94
2022-07-28T01:52:24.599Z,23.08
2022-07-28T01:55:00.210Z,22.95
2022-07-28T01:57:35.936Z,22.94
2022-07-28T02:00:11.635Z,22.92
2022-07-28T02:02:49.364Z,22.94
2022-07-28T02:05:23.551Z,22.92
2022-07-28T02:07:58.580Z,22.94
2022-07-28T02:10:31.600Z,22.99
2022-07-28T02:13:05.108Z,23.04
2022-07-28T02:15:40.344Z,23.13
2022-07-28T02:18:13.171Z,23.22
2022-07-28T02:21:03.294Z,23.32
2022-07-28T02:23:36.686Z,23.44
2022-07-28T02:26:11.811Z,23.55
2022-07-28T02:28:47.275Z,23.67
2022-07-28T02:31:22.646Z,23.75
2022-07-28T02:34:00.115Z,23.82
2022-07-28T02:36:38.154Z,23.90
2022-07-28T02:39:14.832Z,23.94
2022-07-28T02:41:49.857Z,24.00
2022-07-28T02:44:24.831Z,24.04
2022-07-28T02:46:59.362Z,24.13
2022-07-28T02:49:33.684Z,24.24
2022-07-28T02:52:07.757Z,24.41
2022-07-28T02:54:41.289Z,24.67
2022-07-28T02:57:15.967Z,24.79
2022-07-28T02:59:51.607Z,24.95
2022-07-28T03:02:25.165Z,25.06
2022-07-28T03:04:59.322Z,25.18
2022-07-28T03:07:36.512Z,25.26
2022-07-28T03:10:12.590Z,25.34
2022-07-28T03:12:44.773Z,25.42
2022-07-28T03:15:17.598Z,25.47
2022-07-28T03:17:49.682Z,25.51
2022-07-28T03:20:22.006Z,25.54
2022-07-28T03:22:54.226Z,25.55
2022-07-28T03:25:29.977Z,25.59
2022-07-28T03:28:04.529Z,25.65
2022-07-28T03:30:42.874Z,25.73
2022-07-28T03:33:15.206Z,25.78
2022-07-28T03:35:50.232Z,25.81
2022-07-28T03:38:27.761Z,25.84
2022-07-28T03:41:00.903Z,25.83
2022-07-28T03:43:34.730Z,25.82
2022-07-28T03:46:12.845Z,25.83
2022-07-28T03:48:42.587Z,25.91
2022-07-28T03:51:14.913Z,25.94
2022-07-28T03:53:47.740Z,25.95
2022-07-28T03:56:20.080Z,25.97
2022-07-28T03:58:52.162Z,25.98
2022-07-28T04:01:24.539Z,25.99
2022-07-28T04:03:57.263Z,26.00
2022-07-28T04:06:29.550Z,26.02
2022-07-28T04:09:01.824Z,26.00
2022-07-28T04:11:34.277Z,25.97
2022-07-28T04:14:06.360Z,25.90
2022-07-28T04:16:39.382Z,25.80
2022-07-28T04:19:14.442Z,25.76
2022-07-28T04:21:46.938Z,25.73
2022-07-28T04:24:20.047Z,25.71
2022-07-28T04:26:52.781Z,25.73
2022-07-28T04:29:27.349Z,25.73
2022-07-28T04:31:59.592Z,25.73
2022-07-28T04:34:31.657Z,25.73
2022-07-28T04:37:04.389Z,25.73
2022-07-28T04:39:36.865Z,25.78
2022-07-28T04:42:09.361Z,25.88
2022-07-28T04:44:42.705Z,26.06
2022-07-28T04:47:15.380Z,26.25
2022-07-28T04:49:47.501Z,26.38
2022-07-28T04:52:20.181Z,26.55
2022-07-28T04:54:52.585Z,26.74
2022-07-28T04:57:27.053Z,26.89
2022-07-28T05:00:04.289Z,27.05
2022-07-28T05:02:37.675Z,27.24
2022-07-28T05:05:10.685Z,27.39
2022-07-28T05:07:43.261Z,27.62
2022-07-28T05:10:16.219Z,27.83
2022-07-28T05:12:49.897Z,28.02
2022-07-28T05:15:22.592Z,28.17
2022-07-28T05:17:55.175Z,28.20
2022-07-28T05:20:27.805Z,28.10
2022-07-28T05:23:00.070Z,28.04
2022-07-28T05:25:32.530Z,27.99
2022-07-28T05:28:05.995Z,27.99
2022-07-28T05:30:38.531Z,27.99
2022-07-28T05:33:10.594Z,27.99
2022-07-28T05:35:42.920Z,28.03
2022-07-28T05:38:15.449Z,28.08
2022-07-28T05:40:50.246Z,28.12
2022-07-28T05:43:23.139Z,28.15
2022-07-28T05:45:55.751Z,28.22
2022-07-28T05:48:28.244Z,28.29
2022-07-28T05:51:01.317Z,28.41
2022-07-28T05:53:34.896Z,28.50
2022-07-28T05:56:08.688Z,28.67
2022-07-28T05:58:41.132Z,28.84
2022-07-28T06:01:13.349Z,29.10
2022-07-28T06:03:58.066Z,29.23
2022-07-28T06:06:19.398Z,29.44
2022-07-28T06:08:51.229Z,29.74
2022-07-28T06:11:24.693Z,29.88
2022-07-28T06:13:57.562Z,30.14
2022-07-28T06:16:30.357Z,30.40
2022-07-28T06:19:02.884Z,30.53
2022-07-28T06:21:36.944Z,30.57
2022-07-28T06:24:09.679Z,30.57
2022-07-28T06:26:44.868Z,30.54
2022-07-28T06:29:17.028Z,30.38
2022-07-28T06:31:50.516Z,30.17
2022-07-28T06:34:23.985Z,29.99
2022-07-28T06:36:56.552Z,29.84
2022-07-28T06:39:28.817Z,29.66
2022-07-28T06:42:01.805Z,29.57
2022-07-28T06:44:57.520Z,29.45
2022-07-28T06:47:10.691Z,29.53
2022-07-28T06:49:43.385Z,29.69
2022-07-28T06:52:17.378Z,29.78
2022-07-28T06:54:58.300Z,29.86
2022-07-28T06:57:33.560Z,29.99
2022-07-28T07:00:07.940Z,30.02
2022-07-28T07:02:41.820Z,30.06
2022-07-28T07:05:14.538Z,30.08
2022-07-28T07:07:47.236Z,30.10
2022-07-28T07:10:19.985Z,30.14
2022-07-28T07:12:52.473Z,30.16
2022-07-28T07:15:25.656Z,30.24
2022-07-28T07:18:00.415Z,30.28
2022-07-28T07:20:32.922Z,30.43
2022-07-28T07:23:05.670Z,30.57
2022-07-28T07:25:38.504Z,30.63
2022-07-28T07:28:11.165Z,30.70
2022-07-28T07:30:43.942Z,30.81
2022-07-28T07:33:16.677Z,30.89
2022-07-28T07:35:48.917Z,31.03
2022-07-28T07:38:23.169Z,31.11
2022-07-28T07:40:55.348Z,31.25
2022-07-28T07:43:27.800Z,31.36
2022-07-28T07:46:00.236Z,31.44
2022-07-28T07:48:32.810Z,31.48
2022-07-28T07:51:05.351Z,31.67
2022-07-28T07:53:37.957Z,31.82
2022-07-28T07:56:10.254Z,32.05
2022-07-28T07:58:44.887Z,32.23
2022-07-28T08:01:18.449Z,32.31
2022-07-28T08:03:51.524Z,32.42
2022-07-28T08:06:26.500Z,32.45
2022-07-28T08:08:59.425Z,32.66
2022-07-28T08:11:31.877Z,32.97
2022-07-28T08:14:04.654Z,33.15
2022-07-28T08:16:38.075Z,33.38
2022-07-28T08:19:11.051Z,33.32
2022-07-28T08:21:43.999Z,33.32
2022-07-28T08:24:27.615Z,33.26
2022-07-28T08:26:53.035Z,33.11
2022-07-28T08:29:25.370Z,33.00
2022-07-28T08:31:59.946Z,33.08
2022-07-28T08:34:33.984Z,33.05
2022-07-28T08:37:07.174Z,32.99
2022-07-28T08:39:40.092Z,33.08
2022-07-28T08:42:30.319Z,33.18
2022-07-28T08:45:07.813Z,33.25
2022-07-28T08:47:58.659Z,33.13
2022-07-28T08:50:19.829Z,32.96
2022-07-28T08:52:53.709Z,32.77
2022-07-28T08:55:31.887Z,32.75
2022-07-28T08:58:01.369Z,33.05
2022-07-28T09:00:33.875Z,32.98
2022-07-28T09:03:07.230Z,33.21
2022-07-28T09:05:42.051Z,33.39
2022-07-28T09:08:14.798Z,33.46
2022-07-28T09:10:48.410Z,33.59
2022-07-28T09:13:20.850Z,33.60
2022-07-28T09:15:53.489Z,33.56
2022-07-28T09:18:28.143Z,33.46
2022-07-28T09:21:00.630Z,33.30
2022-07-28T09:23:48.237Z,33.28
2022-07-28T09:26:20.585Z,33.43
2022-07-28T09:28:59.092Z,33.50
2022-07-28T09:31:31.819Z,33.47
2022-07-28T09:34:07.405Z,33.40
2022-07-28T09:36:42.155Z,33.43
2022-07-28T09:39:17.123Z,33.48
2022-07-28T09:41:51.703Z,33.60
2022-07-28T09:44:27.477Z,33.73
2022-07-28T09:46:59.814Z,33.96
2022-07-28T09:49:43.494Z,34.21
2022-07-28T09:52:17.383Z,34.39
2022-07-28T09:55:03.824Z,34.81
2022-07-28T09:57:38.051Z,34.77
2022-07-28T10:00:12.802Z,34.79
2022-07-28T10:02:48.709Z,34.66
2022-07-28T10:05:22.640Z,34.46
2022-07-28T10:07:55.099Z,34.24
2022-07-28T10:10:27.293Z,34.08
2022-07-28T10:13:06.920Z,33.91
2022-07-28T10:15:56.775Z,33.88
2022-07-28T10:18:28.856Z,33.83
2022-07-28T10:21:01.209Z,33.84
2022-07-28T10:23:33.821Z,34.03
2022-07-28T10:26:13.061Z,34.21
2022-07-28T10:28:51.978Z,34.43
2022-07-28T10:31:49.882Z,34.60
2022-07-28T10:34:43.141Z,34.68
2022-07-28T10:37:24.561Z,34.75
2022-07-28T10:40:10.698Z,34.74
2022-07-28T10:42:42.555Z,34.65
2022-07-28T10:45:15.585Z,34.53
2022-07-28T10:47:49.205Z,34.35
2022-07-28T10:50:23.013Z,34.25
2022-07-28T10:52:59.344Z,34.18
2022-07-28T10:55:52.241Z,34.24
2022-07-28T10:58:36.285Z,34.41
2022-07-28T11:01:17.066Z,34.51
2022-07-28T11:03:48.834Z,34.51
2022-07-28T11:06:44.856Z,34.55
2022-07-28T11:09:22.950Z,34.72
2022-07-28T11:11:58.130Z,34.70
2022-07-28T11:14:37.158Z,34.68
2022-07-28T11:17:13.465Z,34.70
2022-07-28T11:20:06.980Z,34.80
2022-07-28T11:22:27.118Z,34.92
2022-07-28T11:25:18.732Z,35.22
2022-07-28T11:27:49.275Z,35.46
2022-07-28T11:30:33.909Z,35.73
2022-07-28T11:33:06.788Z,35.24
2022-07-28T11:35:44.865Z,35.79
2022-07-28T11:38:17.671Z,35.14
2022-07-28T11:40:52.267Z,34.80
2022-07-28T11:43:36.206Z,34.49
2022-07-28T11:46:11.287Z,34.05
2022-07-28T11:48:45.467Z,33.62
2022-07-28T11:51:17.499Z,33.22
2022-07-28T11:53:53.055Z,32.75
2022-07-28T11:56:29.498Z,32.36
2022-07-28T11:59:03.753Z,32.04
2022-07-28T12:01:38.692Z,31.74
2022-07-28T12:04:14.818Z,31.46
2022-07-28T12:06:51.219Z,31.31
2022-07-28T12:09:33.730Z,31.23
2022-07-28T12:12:01.923Z,31.07
2022-07-28T12:14:39.009Z,30.96
2022-07-28T12:17:12.309Z,30.74
2022-07-28T12:19:45.851Z,30.55
2022-07-28T12:22:18.287Z,30.44
2022-07-28T12:24:53.636Z,30.59
2022-07-28T12:27:31.894Z,31.27
2022-07-28T12:30:05.750Z,31.82
2022-07-28T12:32:38.126Z,31.93
2022-07-28T12:35:10.692Z,31.94
2022-07-28T12:37:44.629Z,31.88
2022-07-28T12:40:27.499Z,31.80
2022-07-28T12:42:55.309Z,31.75
2022-07-28T12:45:28.697Z,31.65
2022-07-28T12:48:10.614Z,31.62
2022-07-28T12:50:43.661Z,31.73
2022-07-28T12:53:18.333Z,31.87
2022-07-28T12:55:53.018Z,32.43
2022-07-28T12:58:27.629Z,34.24
2022-07-28T13:01:00.203Z,36.86
2022-07-28T13:03:33.894Z,38.62
2022-07-28T13:06:12.200Z,38.63
2022-07-28T13:08:48.476Z,37.82
2022-07-28T13:13:57.909Z,35.31
2022-07-28T13:16:31.015Z,34.22
2022-07-28T13:19:05.926Z,33.29
2022-07-28T13:21:41.092Z,32.47
2022-07-28T13:24:18.678Z,32.43
2022-07-28T13:26:51.556Z,30.90
2022-07-28T13:29:24.257Z,29.96
2022-07-28T13:31:56.715Z,29.06
2022-07-28T13:34:29.394Z,28.37
2022-07-28T13:37:01.516Z,27.46
2022-07-28T13:39:33.754Z,26.62
2022-07-28T13:42:06.548Z,25.63
2022-07-28T13:44:40.441Z,24.68
2022-07-28T13:47:12.675Z,23.83
2022-07-28T13:49:46.661Z,23.17
2022-07-28T13:52:32.937Z,22.75
2022-07-28T13:54:54.274Z,22.44
2022-07-28T13:57:26.503Z,22.37
2022-07-28T13:59:58.780Z,22.32
2022-07-28T14:02:31.025Z,22.34
2022-07-28T14:05:03.520Z,22.46
2022-07-28T14:07:35.810Z,22.57
2022-07-28T14:10:08.715Z,22.72
2022-07-28T14:12:41.214Z,22.81
2022-07-28T14:15:15.342Z,22.95
2022-07-28T14:17:47.777Z,23.05
2022-07-28T14:20:20.101Z,23.11
2022-07-28T14:22:52.530Z,23.20
2022-07-28T14:25:24.851Z,23.35
2022-07-28T14:27:56.938Z,23.46
2022-07-28T14:30:33.312Z,23.63
2022-07-28T14:33:07.325Z,23.76
2022-07-28T14:35:39.677Z,23.85
2022-07-28T14:40:45.788Z,24.10
2022-07-28T14:43:18.206Z,24.22
2022-07-28T14:46:14.790Z,24.40
2022-07-28T14:48:24.190Z,24.53
2022-07-28T14:50:57.235Z,24.74
2022-07-28T14:53:29.601Z,25.01
2022-07-28T14:56:01.966Z,25.27
2022-07-28T14:58:34.171Z,25.55
2022-07-28T15:01:06.742Z,25.80
2022-07-28T15:03:43.399Z,26.18
2022-07-28T15:06:14.018Z,26.57
2022-07-28T15:08:46.214Z,26.80
2022-07-28T15:11:18.302Z,27.16
2022-07-28T15:13:50.496Z,27.27
2022-07-28T15:16:22.998Z,27.42
2022-07-28T15:18:55.587Z,27.43
2022-07-28T15:21:32.979Z,27.41
2022-07-28T15:24:09.476Z,27.29
2022-07-28T15:26:41.762Z,27.21
2022-07-28T15:29:14.668Z,27.47
2022-07-28T15:31:47.201Z,27.05
2022-07-28T15:34:20.355Z,26.93
2022-07-28T15:36:52.777Z,26.87
2022-07-28T15:39:25.146Z,26.82
2022-07-28T15:41:58.992Z,26.82
2022-07-28T15:44:31.914Z,26.86
2022-07-28T15:47:04.307Z,26.94
2022-07-28T15:49:36.479Z,26.99
2022-07-28T15:52:08.639Z,27.03
2022-07-28T15:54:40.812Z,27.07
2022-07-28T15:57:13.996Z,27.10
2022-07-28T15:59:50.170Z,27.15
2022-07-28T16:02:20.731Z,27.07
2022-07-28T16:04:54.154Z,27.01
2022-07-28T16:07:28.248Z,26.97
2022-07-28T16:10:00.410Z,26.92
2022-07-28T16:12:33.623Z,26.84
2022-07-28T16:15:06.571Z,26.79
2022-07-28T16:17:38.825Z,26.71
2022-07-28T16:20:11.758Z,26.60
2022-07-28T16:22:44.360Z,26.46
2022-07-28T16:25:21.055Z,26.35
2022-07-28T16:27:54.106Z,26.23
2022-07-28T16:30:26.989Z,26.08
2022-07-28T16:32:59.547Z,26.01
2022-07-28T16:35:34.606Z,25.96
2022-07-28T16:38:07.984Z,25.88
2022-07-28T16:40:40.845Z,25.78
2022-07-28T16:43:13.227Z,25.67
2022-07-28T16:45:46.172Z,25.52
2022-07-28T16:48:18.367Z,25.38
2022-07-28T16:50:50.541Z,25.23
2022-07-28T16:53:22.411Z,25.08
2022-07-28T16:55:55.051Z,24.91
2022-07-28T16:58:27.067Z,24.80
2022-07-28T17:01:00.121Z,24.67
2022-07-28T17:03:32.961Z,24.58
2022-07-28T17:06:05.419Z,24.54
2022-07-28T17:08:37.647Z,24.48
2022-07-28T17:11:10.416Z,24.49
2022-07-28T17:13:45.408Z,24.43
2022-07-28T17:16:17.019Z,24.44
2022-07-28T17:18:49.387Z,24.42
2022-07-28T17:21:21.702Z,24.33
2022-07-28T17:23:53.932Z,24.24
2022-07-28T17:29:00.593Z,24.13
2022-07-28T17:31:33.695Z,24.11
2022-07-28T17:34:06.390Z,23.92
2022-07-28T17:36:41.336Z,23.74
2022-07-28T17:39:14.286Z,23.61
2022-07-28T17:41:46.269Z,23.56
2022-07-28T17:44:18.833Z,23.45
2022-07-28T17:46:52.199Z,23.39
2022-07-28T17:49:24.378Z,23.35
2022-07-28T17:51:56.867Z,23.28
2022-07-28T17:54:30.458Z,23.29
2022-07-28T17:57:03.443Z,23.20
2022-07-28T17:59:51.455Z,23.16
2022-07-28T18:02:10.433Z,23.35
2022-07-28T18:04:42.560Z,23.05
2022-07-28T18:07:15.554Z,22.96
2022-07-28T18:09:47.781Z,22.89
2022-07-28T18:12:20.028Z,22.77
2022-07-28T18:14:52.461Z,22.71
2022-07-28T18:17:25.379Z,22.67
2022-07-28T18:19:57.685Z,22.58
2022-07-28T18:22:29.912Z,22.36
2022-07-28T18:25:03.001Z,22.27
2022-07-28T18:27:36.960Z,22.15
2022-07-28T18:30:09.765Z,22.12
2022-07-28T18:32:41.759Z,21.99
2022-07-28T18:35:14.070Z,21.95
2022-07-28T18:37:46.467Z,21.84
2022-07-28T18:40:21.619Z,21.79
2022-07-28T18:42:54.217Z,21.77
2022-07-28T18:45:26.668Z,21.67
2022-07-28T18:47:59.927Z,21.56
2022-07-28T18:50:32.443Z,21.54
2022-07-28T18:53:04.857Z,21.49
2022-07-28T18:55:36.979Z,21.52
2022-07-28T18:58:09.389Z,21.54
2022-07-28T19:00:41.444Z,21.53
2022-07-28T19:03:13.545Z,21.51
2022-07-28T19:05:46.511Z,21.47
2022-07-28T19:08:18.683Z,21.50
2022-07-28T19:10:50.963Z,21.52
2022-07-28T19:13:22.983Z,21.55
2022-07-28T19:15:55.124Z,21.52
2022-07-28T19:18:27.342Z,21.50
2022-07-28T19:20:59.854Z,21.49
2022-07-28T19:23:32.521Z,21.44
2022-07-28T19:26:04.643Z,21.36
2022-07-28T19:28:36.734Z,21.34
2022-07-28T19:31:10.466Z,21.25
2022-07-28T19:33:43.862Z,21.23
2022-07-28T19:36:16.526Z,21.17
2022-07-28T19:38:48.621Z,21.22
2022-07-28T19:41:20.748Z,21.18
2022-07-28T19:43:53.073Z,21.12
2022-07-28T19:46:26.189Z,21.00
2022-07-28T19:48:58.791Z,20.94
2022-07-28T19:51:30.863Z,20.84
2022-07-28T19:54:03.115Z,20.77
2022-07-28T19:56:35.303Z,20.78
2022-07-28T19:59:07.309Z,20.63
2022-07-28T20:01:44.198Z,20.58
2022-07-28T20:04:13.060Z,20.50
2022-07-28T20:06:45.249Z,20.42
2022-07-28T20:09:17.737Z,20.31
2022-07-28T20:11:50.669Z,20.18
2022-07-28T20:14:22.652Z,20.16
2022-07-28T20:16:54.870Z,20.12
2022-07-28T20:19:27.016Z,20.05
2022-07-28T20:21:59.275Z,19.98
2022-07-28T20:24:31.426Z,19.94
2022-07-28T20:27:08.335Z,19.89
2022-07-28T20:29:40.600Z,19.77
2022-07-28T20:32:13.022Z,19.79
2022-07-28T20:34:45.218Z,19.72
2022-07-28T20:37:24.507Z,19.69
2022-07-28T20:39:57.454Z,19.68
2022-07-28T20:42:29.840Z,19.69
2022-07-28T20:45:02.187Z,19.66
2022-07-28T20:47:35.074Z,19.64
2022-07-28T20:50:08.085Z,19.61
2022-07-28T20:52:40.255Z,19.55
2022-07-28T20:55:12.827Z,19.48
2022-07-28T20:57:53.523Z,19.43
2022-07-28T21:00:19.075Z,19.41
2022-07-28T21:02:51.611Z,19.45
2022-07-28T21:05:26.793Z,19.42
2022-07-28T21:08:05.080Z,19.49
2022-07-28T21:10:31.866Z,19.53
2022-07-28T21:13:03.967Z,19.59
2022-07-28T21:15:36.167Z,19.61
2022-07-28T21:18:08.180Z,19.61
2022-07-28T21:20:40.534Z,19.64
2022-07-28T21:23:12.599Z,19.67
2022-07-28T21:25:45.652Z,19.70
2022-07-28T21:28:35.025Z,19.75
2022-07-28T21:31:07.842Z,19.72
2022-07-28T21:33:40.257Z,19.86
2022-07-28T21:36:12.437Z,19.71
2022-07-28T21:38:45.695Z,19.69
2022-07-28T21:41:19.294Z,19.64
2022-07-28T21:43:53.510Z,19.64
2022-07-28T21:46:26.513Z,19.65
2022-07-28T21:49:01.269Z,19.65
2022-07-28T21:51:34.364Z,19.69
2022-07-28T21:54:06.629Z,19.72
2022-07-28T21:56:38.821Z,19.78
2022-07-28T21:59:10.902Z,19.76
2022-07-28T22:01:43.157Z,19.69
2022-07-28T22:04:15.704Z,19.60
2022-07-28T22:06:48.442Z,19.54
2022-07-28T22:09:20.805Z,19.54
2022-07-28T22:11:53.084Z,19.53
2022-07-28T22:14:26.973Z,19.51
2022-07-28T22:17:01.506Z,19.52
2022-07-28T22:19:34.151Z,19.57
2022-07-28T22:22:06.160Z,19.59
2022-07-28T22:24:38.419Z,19.59
2022-07-28T22:27:10.478Z,19.56
2022-07-28T22:29:43.484Z,19.57
2022-07-28T22:32:16.546Z,19.55
2022-07-28T22:34:48.993Z,19.54
2022-07-28T22:37:20.975Z,19.54
2022-07-28T22:39:53.276Z,19.57
2022-07-28T22:42:25.284Z,19.56
2022-07-28T22:44:57.292Z,19.53
2022-07-28T22:47:29.734Z,19.53
2022-07-28T22:50:01.723Z,19.52
2022-07-28T22:52:34.585Z,19.52
2022-07-28T22:55:07.189Z,19.52
2022-07-28T22:57:40.498Z,19.53
2022-07-28T23:00:12.856Z,19.56
2022-07-28T23:02:44.966Z,19.52
2022-07-28T23:05:17.239Z,19.52
2022-07-28T23:07:53.093Z,19.59
2022-07-28T23:10:23.172Z,19.53
2022-07-28T23:12:58.583Z,19.45
2022-07-28T23:15:40.902Z,19.42
2022-07-28T23:18:03.369Z,19.39
2022-07-28T23:20:35.820Z,19.37
2022-07-28T23:23:08.122Z,19.37
2022-07-28T23:25:43.046Z,19.36
2022-07-28T23:28:15.245Z,19.35
2022-07-28T23:30:48.229Z,19.32
2022-07-28T23:33:54.659Z,19.27
2022-07-28T23:35:55.802Z,19.26
2022-07-28T23:38:27.882Z,19.27
2022-07-28T23:40:59.894Z,19.29
2022-07-28T23:43:32.173Z,19.29
2022-07-28T23:46:04.210Z,19.24
2022-07-28T23:48:36.892Z,19.13
2022-07-28T23:51:08.990Z,19.10
2022-07-28T23:53:42.850Z,19.06
2022-07-28T23:56:15.960Z,19.05
2022-07-28T23:58:47.995Z,19.01
